sensor_id;sensor_type;location;lat;lon;timestamp;pressure;altitude;pressure_sealevel;temperature;humidity
74627;BME280;63132;52.268;5.192;2024-03-23T00:53:22;100929.91;;;9.84;70.37
74627;BME280;63132;52.268;5.192;2024-03-23T00:55:48;100920.00;;;9.72;69.97
74627;BME280;63132;52.268;5.192;2024-03-23T00:58:13;100924.34;;;9.66;70.63
74627;BME280;63132;52.268;5.192;2024-03-23T01:00:38;100910.13;;;9.64;70.40
74627;BME280;63132;52.268;5.192;2024-03-23T01:03:04;100908.94;;;9.65;70.69
74627;BME280;63132;52.268;5.192;2024-03-23T01:05:30;100910.13;;;9.64;70.29
74627;BME280;63132;52.268;5.192;2024-03-23T01:07:55;100903.81;;;9.74;70.43
74627;BME280;63132;52.268;5.192;2024-03-23T01:10:20;100900.66;;;9.65;70.54
74627;BME280;63132;52.268;5.192;2024-03-23T01:12:45;100903.44;;;9.61;71.17
74627;BME280;63132;52.268;5.192;2024-03-23T01:15:11;100889.59;;;9.61;70.76
74627;BME280;63132;52.268;5.192;2024-03-23T01:17:36;100895.50;;;9.60;71.10
74627;BME280;63132;52.268;5.192;2024-03-23T01:20:02;100886.44;;;9.63;70.99
74627;BME280;63132;52.268;5.192;2024-03-23T01:22:27;100883.69;;;9.56;70.61
74627;BME280;63132;52.268;5.192;2024-03-23T01:24:53;100881.69;;;9.38;70.42
74627;BME280;63132;52.268;5.192;2024-03-23T01:27:18;100874.59;;;9.37;71.30
74627;BME280;63132;52.268;5.192;2024-03-23T01:29:43;100882.47;;;9.18;70.55
74627;BME280;63132;52.268;5.192;2024-03-23T01:32:09;100873.00;;;9.22;70.79
74627;BME280;63132;52.268;5.192;2024-03-23T01:34:34;100866.28;;;9.16;70.79
74627;BME280;63132;52.268;5.192;2024-03-23T01:36:59;100863.13;;;9.10;70.67
74627;BME280;63132;52.268;5.192;2024-03-23T01:39:26;100857.97;;;9.16;71.74
74627;BME280;63132;52.268;5.192;2024-03-23T01:41:51;100860.75;;;9.02;71.33
74627;BME280;63132;52.268;5.192;2024-03-23T01:44:17;100857.97;;;8.87;71.11
74627;BME280;63132;52.268;5.192;2024-03-23T01:46:43;100846.94;;;8.95;71.56
74627;BME280;63132;52.268;5.192;2024-03-23T01:49:09;100855.97;;;8.84;71.40
74627;BME280;63132;52.268;5.192;2024-03-23T01:51:35;100856.72;;;8.67;70.16
74627;BME280;63132;52.268;5.192;2024-03-23T01:54:04;100857.94;;;8.73;71.91
74627;BME280;63132;52.268;5.192;2024-03-23T01:56:31;100851.56;;;8.58;71.03
74627;BME280;63132;52.268;5.192;2024-03-23T01:58:58;100853.91;;;8.53;71.10
74627;BME280;63132;52.268;5.192;2024-03-23T02:01:23;100853.88;;;8.46;71.13
74627;BME280;63132;52.268;5.192;2024-03-23T02:03:48;100849.97;;;8.54;71.21
74627;BME280;63132;52.268;5.192;2024-03-23T02:06:14;100848.41;;;8.49;71.00
74627;BME280;63132;52.268;5.192;2024-03-23T02:08:39;100851.16;;;8.56;71.33
74627;BME280;63132;52.268;5.192;2024-03-23T02:11:05;100859.00;;;8.47;71.00
74627;BME280;63132;52.268;5.192;2024-03-23T02:13:30;100852.34;;;8.63;71.13
74627;BME280;63132;52.268;5.192;2024-03-23T02:15:57;100845.25;;;8.58;71.03
74627;BME280;63132;52.268;5.192;2024-03-23T02:18:22;100848.81;;;8.62;71.50
74627;BME280;63132;52.268;5.192;2024-03-23T02:20:48;100846.47;;;8.71;70.96
74627;BME280;63132;52.268;5.192;2024-03-23T02:23:17;100840.59;;;8.80;71.13
74627;BME280;63132;52.268;5.192;2024-03-23T02:25:45;100844.50;;;8.79;70.96
74627;BME280;63132;52.268;5.192;2024-03-23T02:28:11;100842.91;;;8.71;71.40
74627;BME280;63132;52.268;5.192;2024-03-23T02:30:37;100839.41;;;8.84;71.32
74627;BME280;63132;52.268;5.192;2024-03-23T02:33:02;100835.88;;;8.91;70.98
74627;BME280;63132;52.268;5.192;2024-03-23T02:35:28;100831.50;;;8.83;70.95
74627;BME280;63132;52.268;5.192;2024-03-23T02:37:53;100821.66;;;8.85;70.80
74627;BME280;63132;52.268;5.192;2024-03-23T02:40:22;100825.59;;;8.84;70.45
74627;BME280;63132;52.268;5.192;2024-03-23T02:42:48;100818.47;;;8.76;70.98
74627;BME280;63132;52.268;5.192;2024-03-23T02:45:13;100822.41;;;8.65;70.26
74627;BME280;63132;52.268;5.192;2024-03-23T02:47:39;100820.41;;;8.62;70.08
74627;BME280;63132;52.268;5.192;2024-03-23T02:50:04;100818.44;;;8.55;70.35
74627;BME280;63132;52.268;5.192;2024-03-23T02:52:30;100806.63;;;8.58;70.65
74627;BME280;63132;52.268;5.192;2024-03-23T02:54:56;100812.50;;;8.53;70.55
74627;BME280;63132;52.268;5.192;2024-03-23T02:57:21;100815.28;;;8.49;70.12
74627;BME280;63132;52.268;5.192;2024-03-23T02:59:47;100818.00;;;8.39;70.61
74627;BME280;63132;52.268;5.192;2024-03-23T03:02:13;100823.06;;;8.33;70.86
74627;BME280;63132;52.268;5.192;2024-03-23T03:04:39;100817.94;;;8.28;70.75
74627;BME280;63132;52.268;5.192;2024-03-23T03:07:04;100813.94;;;8.18;71.36
74627;BME280;63132;52.268;5.192;2024-03-23T03:09:29;100809.59;;;8.14;70.98
74627;BME280;63132;52.268;5.192;2024-03-23T03:11:55;100814.25;;;7.99;70.11
74627;BME280;63132;52.268;5.192;2024-03-23T03:14:20;100804.84;;;8.11;71.02
74627;BME280;63132;52.268;5.192;2024-03-23T03:16:46;100807.16;;;8.01;70.52
74627;BME280;63132;52.268;5.192;2024-03-23T03:19:11;100804.38;;;7.91;70.13
74627;BME280;63132;52.268;5.192;2024-03-23T03:21:36;100807.56;;;8.03;70.54
74627;BME280;63132;52.268;5.192;2024-03-23T03:24:02;100809.88;;;7.91;70.27
74627;BME280;63132;52.268;5.192;2024-03-23T03:26:27;100800.03;;;7.93;70.32
74627;BME280;63132;52.268;5.192;2024-03-23T03:28:53;100808.66;;;7.85;70.95
74627;BME280;63132;52.268;5.192;2024-03-23T03:31:18;100803.09;;;7.81;71.14
74627;BME280;63132;52.268;5.192;2024-03-23T03:33:44;100806.25;;;7.76;71.20
74627;BME280;63132;52.268;5.192;2024-03-23T03:36:10;100800.31;;;7.74;70.31
74627;BME280;63132;52.268;5.192;2024-03-23T03:38:35;100803.44;;;7.69;70.18
74627;BME280;63132;52.268;5.192;2024-03-23T03:41:01;100800.31;;;7.70;70.70
74627;BME280;63132;52.268;5.192;2024-03-23T03:43:27;100785.69;;;7.66;70.50
74627;BME280;63132;52.268;5.192;2024-03-23T03:45:53;100793.53;;;7.57;69.80
74627;BME280;63132;52.268;5.192;2024-03-23T03:48:19;100792.78;;;7.60;69.97
74627;BME280;63132;52.268;5.192;2024-03-23T03:50:44;100788.00;;;7.57;69.47
74627;BME280;63132;52.268;5.192;2024-03-23T03:53:10;100784.81;;;7.52;69.43
74627;BME280;63132;52.268;5.192;2024-03-23T03:55:35;100776.19;;;7.53;69.90
74627;BME280;63132;52.268;5.192;2024-03-23T03:58:01;100770.78;;;7.71;71.02
74627;BME280;63132;52.268;5.192;2024-03-23T04:00:26;100775.50;;;7.70;70.60
74627;BME280;63132;52.268;5.192;2024-03-23T04:02:51;100785.75;;;7.73;70.54
74627;BME280;63132;52.268;5.192;2024-03-23T04:05:16;100781.72;;;7.57;70.62
74627;BME280;63132;52.268;5.192;2024-03-23T04:07:42;100781.94;;;8.03;70.31
74627;BME280;63132;52.268;5.192;2024-03-23T04:10:07;100781.22;;;8.17;69.75
74627;BME280;63132;52.268;5.192;2024-03-23T04:12:34;100779.28;;;8.24;69.57
74627;BME280;63132;52.268;5.192;2024-03-23T04:14:59;100772.19;;;8.20;69.38
74627;BME280;63132;52.268;5.192;2024-03-23T04:17:24;100766.25;;;8.14;68.92
74627;BME280;63132;52.268;5.192;2024-03-23T04:19:50;100764.63;;;7.99;68.72
74627;BME280;63132;52.268;5.192;2024-03-23T04:22:17;100766.53;;;7.88;69.78
74627;BME280;63132;52.268;5.192;2024-03-23T04:24:43;100762.94;;;7.76;69.53
74627;BME280;63132;52.268;5.192;2024-03-23T04:27:08;100769.59;;;7.68;69.32
74627;BME280;63132;52.268;5.192;2024-03-23T04:29:33;100764.41;;;7.60;69.68
74627;BME280;63132;52.268;5.192;2024-03-23T04:31:59;100771.06;;;7.55;70.47
74627;BME280;63132;52.268;5.192;2024-03-23T04:34:24;100771.88;;;7.56;71.59
74627;BME280;63132;52.268;5.192;2024-03-23T04:36:50;100765.13;;;7.49;71.07
74627;BME280;63132;52.268;5.192;2024-03-23T04:39:15;100758.38;;;7.40;70.78
74627;BME280;63132;52.268;5.192;2024-03-23T04:41:40;100766.56;;;7.29;70.61
74627;BME280;63132;52.268;5.192;2024-03-23T04:44:06;100764.16;;;7.20;69.96
74627;BME280;63132;52.268;5.192;2024-03-23T04:46:31;100771.28;;;7.29;70.00
74627;BME280;63132;52.268;5.192;2024-03-23T04:48:57;100767.75;;;7.28;70.04
74627;BME280;63132;52.268;5.192;2024-03-23T04:51:25;100768.53;;;7.29;69.84
74627;BME280;63132;52.268;5.192;2024-03-23T04:53:51;100758.69;;;7.24;70.51
74627;BME280;63132;52.268;5.192;2024-03-23T04:56:17;100757.78;;;7.13;70.31
74627;BME280;63132;52.268;5.192;2024-03-23T04:58:42;100762.63;;;7.27;70.03
74627;BME280;63132;52.268;5.192;2024-03-23T05:01:08;100753.19;;;7.28;69.95
74627;BME280;63132;52.268;5.192;2024-03-23T05:03:34;100759.53;;;7.35;70.79
74627;BME280;63132;52.268;5.192;2024-03-23T05:05:59;100761.03;;;7.26;70.47
74627;BME280;63132;52.268;5.192;2024-03-23T05:08:25;100759.41;;;7.17;70.31
74627;BME280;63132;52.268;5.192;2024-03-23T05:10:50;100757.06;;;7.19;70.04
74627;BME280;63132;52.268;5.192;2024-03-23T05:13:16;100755.88;;;7.20;70.22
74627;BME280;63132;52.268;5.192;2024-03-23T05:15:41;100758.59;;;7.13;70.20
74627;BME280;63132;52.268;5.192;2024-03-23T05:18:06;100757.75;;;7.06;70.18
74627;BME280;63132;52.268;5.192;2024-03-23T05:20:32;100765.22;;;7.05;70.16
74627;BME280;63132;52.268;5.192;2024-03-23T05:22:57;100768.03;;;7.12;70.23
74627;BME280;63132;52.268;5.192;2024-03-23T05:25:23;100763.69;;;7.11;70.55
74627;BME280;63132;52.268;5.192;2024-03-23T05:27:48;100754.75;;;7.29;70.20
74627;BME280;63132;52.268;5.192;2024-03-23T05:30:14;100758.03;;;7.48;69.91
74627;BME280;63132;52.268;5.192;2024-03-23T05:32:40;100764.38;;;7.53;70.02
74627;BME280;63132;52.268;5.192;2024-03-23T05:35:07;100764.00;;;7.58;69.99
74627;BME280;63132;52.268;5.192;2024-03-23T05:37:33;100759.91;;;7.34;70.70
74627;BME280;63132;52.268;5.192;2024-03-23T05:39:59;100754.19;;;7.64;69.76
74627;BME280;63132;52.268;5.192;2024-03-23T05:42:25;100753.88;;;7.76;68.98
74627;BME280;63132;52.268;5.192;2024-03-23T05:44:50;100758.97;;;7.70;69.51
74627;BME280;63132;52.268;5.192;2024-03-23T05:47:15;100746.75;;;7.68;69.64
74627;BME280;63132;52.268;5.192;2024-03-23T05:49:42;100744.81;;;7.75;69.25
74627;BME280;63132;52.268;5.192;2024-03-23T05:52:08;100748.34;;;7.72;69.21
74627;BME280;63132;52.268;5.192;2024-03-23T05:54:34;100742.38;;;7.67;69.38
74627;BME280;63132;52.268;5.192;2024-03-23T05:57:00;100748.72;;;7.74;68.81
74627;BME280;63132;52.268;5.192;2024-03-23T05:59:25;100750.69;;;7.74;69.42
74627;BME280;63132;52.268;5.192;2024-03-23T06:01:52;100746.78;;;7.75;68.66
74627;BME280;63132;52.268;5.192;2024-03-23T06:04:17;100744.88;;;7.93;68.35
74627;BME280;63132;52.268;5.192;2024-03-23T06:06:42;100745.69;;;7.90;68.55
74627;BME280;63132;52.268;5.192;2024-03-23T06:09:08;100741.34;;;7.96;68.34
74627;BME280;63132;52.268;5.192;2024-03-23T06:11:33;100748.00;;;7.88;68.32
74627;BME280;63132;52.268;5.192;2024-03-23T06:13:58;100752.00;;;7.98;68.04
74627;BME280;63132;52.268;5.192;2024-03-23T06:16:23;100749.66;;;8.11;68.06
74627;BME280;63132;52.268;5.192;2024-03-23T06:18:50;100759.56;;;8.15;68.17
74627;BME280;63132;52.268;5.192;2024-03-23T06:21:15;100742.25;;;8.32;67.34
74627;BME280;63132;52.268;5.192;2024-03-23T06:23:41;100742.25;;;8.32;67.60
74627;BME280;63132;52.268;5.192;2024-03-23T06:26:07;100744.22;;;8.28;67.95
74627;BME280;63132;52.268;5.192;2024-03-23T06:28:32;100749.00;;;8.39;67.69
74627;BME280;63132;52.268;5.192;2024-03-23T06:30:57;100743.53;;;8.49;67.33
74627;BME280;63132;52.268;5.192;2024-03-23T06:33:23;100748.19;;;8.35;68.00
74627;BME280;63132;52.268;5.192;2024-03-23T06:35:52;100747.47;;;8.52;67.87
74627;BME280;63132;52.268;5.192;2024-03-23T06:38:18;100745.88;;;8.62;67.49
74627;BME280;63132;52.268;5.192;2024-03-23T06:40:44;100736.44;;;8.59;66.65
74627;BME280;63132;52.268;5.192;2024-03-23T06:43:13;100740.78;;;8.74;67.24
74627;BME280;63132;52.268;5.192;2024-03-23T06:45:38;100750.66;;;8.72;67.33
74627;BME280;63132;52.268;5.192;2024-03-23T06:48:04;100743.16;;;8.76;67.05
74627;BME280;63132;52.268;5.192;2024-03-23T06:50:32;100744.34;;;8.82;66.88
74627;BME280;63132;52.268;5.192;2024-03-23T06:52:57;100751.44;;;8.79;66.78
74627;BME280;63132;52.268;5.192;2024-03-23T06:55:23;100746.69;;;9.12;66.81
74627;BME280;63132;52.268;5.192;2024-03-23T06:57:50;100740.00;;;9.17;65.48
74627;BME280;63132;52.268;5.192;2024-03-23T07:00:15;100736.03;;;9.28;65.36
74627;BME280;63132;52.268;5.192;2024-03-23T07:02:41;100742.31;;;9.47;65.46
74627;BME280;63132;52.268;5.192;2024-03-23T07:05:06;100740.34;;;9.54;65.09
74627;BME280;63132;52.268;5.192;2024-03-23T07:07:32;100743.88;;;9.55;65.16
74627;BME280;63132;52.268;5.192;2024-03-23T07:09:57;100741.84;;;9.66;65.24
74627;BME280;63132;52.268;5.192;2024-03-23T07:12:23;100744.56;;;9.87;64.44
74627;BME280;63132;52.268;5.192;2024-03-23T07:14:48;100739.81;;;9.91;63.83
74627;BME280;63132;52.268;5.192;2024-03-23T07:17:13;100732.31;;;10.62;63.24
74627;BME280;63132;52.268;5.192;2024-03-23T07:19:39;100740.00;;;10.95;62.27
74627;BME280;63132;52.268;5.192;2024-03-23T07:22:04;100737.75;;;11.24;62.92
74627;BME280;63132;52.268;5.192;2024-03-23T07:24:29;100740.16;;;10.74;61.57
74627;BME280;63132;52.268;5.192;2024-03-23T07:26:55;100744.38;;;10.34;62.65
74627;BME280;63132;52.268;5.192;2024-03-23T07:29:23;100747.53;;;10.36;62.21
74627;BME280;63132;52.268;5.192;2024-03-23T07:31:48;100752.09;;;10.64;62.42
74627;BME280;63132;52.268;5.192;2024-03-23T07:34:13;100754.16;;;10.49;62.12
74627;BME280;63132;52.268;5.192;2024-03-23T07:36:39;100753.03;;;10.39;61.51
74627;BME280;63132;52.268;5.192;2024-03-23T07:39:04;100752.22;;;10.46;60.89
74627;BME280;63132;52.268;5.192;2024-03-23T07:41:29;100755.09;;;10.28;61.00
74627;BME280;63132;52.268;5.192;2024-03-23T07:43:56;100748.31;;;10.36;60.70
74627;BME280;63132;52.268;5.192;2024-03-23T07:46:21;100747.38;;;10.61;59.75
74627;BME280;63132;52.268;5.192;2024-03-23T07:48:46;100742.00;;;10.91;59.56
74627;BME280;63132;52.268;5.192;2024-03-23T07:51:21;100744.97;;;10.63;58.69
74627;BME280;63132;52.268;5.192;2024-03-23T07:53:46;100729.00;;;10.85;58.69
74627;BME280;63132;52.268;5.192;2024-03-23T07:56:13;100730.50;;;10.93;58.47
74627;BME280;63132;52.268;5.192;2024-03-23T07:58:40;100734.09;;;11.34;57.97
74627;BME280;63132;52.268;5.192;2024-03-23T08:01:12;100724.78;;;11.14;57.16
74627;BME280;63132;52.268;5.192;2024-03-23T08:03:41;100735.91;;;11.11;56.69
74627;BME280;63132;52.268;5.192;2024-03-23T08:06:17;100741.03;;;11.53;56.29
74627;BME280;63132;52.268;5.192;2024-03-23T08:08:44;100738.31;;;11.84;55.69
74627;BME280;63132;52.268;5.192;2024-03-23T08:11:10;100736.50;;;12.04;55.12
74627;BME280;63132;52.268;5.192;2024-03-23T08:13:38;100730.84;;;11.81;53.66
74627;BME280;63132;52.268;5.192;2024-03-23T08:16:03;100730.41;;;11.48;54.42
74627;BME280;63132;52.268;5.192;2024-03-23T08:18:30;100733.47;;;11.57;53.87
74627;BME280;63132;52.268;5.192;2024-03-23T08:21:00;100731.84;;;11.60;53.03
74627;BME280;63132;52.268;5.192;2024-03-23T08:23:30;100728.50;;;11.76;52.92
74627;BME280;63132;52.268;5.192;2024-03-23T08:25:59;100730.63;;;11.64;52.80
74627;BME280;63132;52.268;5.192;2024-03-23T08:28:25;100736.88;;;11.72;52.58
74627;BME280;63132;52.268;5.192;2024-03-23T08:30:52;100744.56;;;11.16;53.18
74627;BME280;63132;52.268;5.192;2024-03-23T08:33:18;100741.63;;;10.89;53.99
74627;BME280;63132;52.268;5.192;2024-03-23T08:35:56;100737.16;;;11.47;53.59
74627;BME280;63132;52.268;5.192;2024-03-23T08:38:22;100739.78;;;11.17;54.25
74627;BME280;63132;52.268;5.192;2024-03-23T08:40:48;100738.94;;;11.64;52.62
74627;BME280;63132;52.268;5.192;2024-03-23T08:43:21;100726.75;;;11.55;52.57
74627;BME280;63132;52.268;5.192;2024-03-23T08:45:46;100737.34;;;12.01;51.98
74627;BME280;63132;52.268;5.192;2024-03-23T08:48:11;100730.47;;;11.41;51.65
74627;BME280;63132;52.268;5.192;2024-03-23T08:50:37;100726.41;;;11.49;51.47
74627;BME280;63132;52.268;5.192;2024-03-23T08:53:02;100729.91;;;11.91;51.10
74627;BME280;63132;52.268;5.192;2024-03-23T08:55:28;100733.31;;;11.72;51.59
74627;BME280;63132;52.268;5.192;2024-03-23T08:57:53;100727.53;;;11.93;50.55
74627;BME280;63132;52.268;5.192;2024-03-23T09:00:18;100738.56;;;11.25;51.42
74627;BME280;63132;52.268;5.192;2024-03-23T09:02:47;100727.47;;;11.25;51.99
74627;BME280;63132;52.268;5.192;2024-03-23T09:05:12;100732.91;;;11.35;51.20
74627;BME280;63132;52.268;5.192;2024-03-23T09:07:38;100723.28;;;11.47;52.23
74627;BME280;63132;52.268;5.192;2024-03-23T09:10:03;100735.59;;;11.77;49.57
74627;BME280;63132;52.268;5.192;2024-03-23T09:12:28;100734.81;;;11.76;49.61
74627;BME280;63132;52.268;5.192;2024-03-23T09:14:54;100723.78;;;12.07;49.13
74627;BME280;63132;52.268;5.192;2024-03-23T09:17:19;100726.81;;;12.46;49.01
74627;BME280;63132;52.268;5.192;2024-03-23T09:19:44;100723.19;;;12.23;49.34
74627;BME280;63132;52.268;5.192;2024-03-23T09:22:10;100722.16;;;12.36;49.65
74627;BME280;63132;52.268;5.192;2024-03-23T09:24:35;100728.50;;;11.76;50.88
74627;BME280;63132;52.268;5.192;2024-03-23T09:27:01;100735.72;;;12.04;51.06
74627;BME280;63132;52.268;5.192;2024-03-23T09:29:28;100735.47;;;11.91;51.77
74627;BME280;63132;52.268;5.192;2024-03-23T09:31:53;100727.22;;;11.46;51.81
74627;BME280;63132;52.268;5.192;2024-03-23T09:34:19;100729.91;;;11.16;53.20
74627;BME280;63132;52.268;5.192;2024-03-23T09:36:44;100736.44;;;11.36;52.80
74627;BME280;63132;52.268;5.192;2024-03-23T09:39:10;100725.25;;;11.84;52.73
74627;BME280;63132;52.268;5.192;2024-03-23T09:41:35;100717.16;;;11.97;52.02
74627;BME280;63132;52.268;5.192;2024-03-23T09:44:01;100714.47;;;11.90;53.13
74627;BME280;63132;52.268;5.192;2024-03-23T09:46:27;100728.31;;;11.18;56.70
74627;BME280;63132;52.268;5.192;2024-03-23T09:48:55;100724.00;;;11.14;56.12
74627;BME280;63132;52.268;5.192;2024-03-23T09:51:21;100730.34;;;10.62;56.41
74627;BME280;63132;52.268;5.192;2024-03-23T09:53:46;100728.63;;;10.23;56.25
74627;BME280;63132;52.268;5.192;2024-03-23T09:56:12;100721.72;;;10.49;56.58
74627;BME280;63132;52.268;5.192;2024-03-23T09:58:37;100726.53;;;10.42;56.56
74627;BME280;63132;52.268;5.192;2024-03-23T10:01:02;100724.81;;;10.62;55.99
74627;BME280;63132;52.268;5.192;2024-03-23T10:03:28;100720.00;;;10.70;53.57
74627;BME280;63132;52.268;5.192;2024-03-23T10:06:01;100736.47;;;10.91;52.80
74627;BME280;63132;52.268;5.192;2024-03-23T10:08:28;100723.16;;;11.17;51.59
74627;BME280;63132;52.268;5.192;2024-03-23T10:10:54;100727.59;;;11.11;50.36
74627;BME280;63132;52.268;5.192;2024-03-23T10:13:28;100723.72;;;11.42;49.54
74627;BME280;63132;52.268;5.192;2024-03-23T10:15:57;100724.13;;;11.75;50.55
74627;BME280;63132;52.268;5.192;2024-03-23T10:18:23;100729.06;;;11.22;51.38
74627;BME280;63132;52.268;5.192;2024-03-23T10:21:07;100733.16;;;11.07;51.52
74627;BME280;63132;52.268;5.192;2024-03-23T10:23:41;100726.28;;;11.60;52.39
74627;BME280;63132;52.268;5.192;2024-03-23T10:26:20;100713.19;;;11.98;50.84
74627;BME280;63132;52.268;5.192;2024-03-23T10:28:54;100720.94;;;12.68;49.13
74627;BME280;63132;52.268;5.192;2024-03-23T10:31:22;100720.41;;;12.50;47.69
74627;BME280;63132;52.268;5.192;2024-03-23T10:33:48;100717.72;;;12.42;48.30
74627;BME280;63132;52.268;5.192;2024-03-23T10:36:14;100722.28;;;12.56;47.28
74627;BME280;63132;52.268;5.192;2024-03-23T10:38:41;100715.28;;;12.48;47.17
74627;BME280;63132;52.268;5.192;2024-03-23T10:41:08;100707.75;;;12.72;46.79
74627;BME280;63132;52.268;5.192;2024-03-23T10:43:36;100702.91;;;12.53;46.98
74627;BME280;63132;52.268;5.192;2024-03-23T10:46:01;100704.66;;;12.12;48.36
74627;BME280;63132;52.268;5.192;2024-03-23T10:48:27;100708.47;;;11.95;48.57
74627;BME280;63132;52.268;5.192;2024-03-23T10:50:53;100712.50;;;11.53;48.05
74627;BME280;63132;52.268;5.192;2024-03-23T10:53:21;100694.38;;;11.79;47.78
74627;BME280;63132;52.268;5.192;2024-03-23T10:55:50;100707.94;;;12.07;48.91
74627;BME280;63132;52.268;5.192;2024-03-23T10:58:21;100706.22;;;12.44;47.48
74627;BME280;63132;52.268;5.192;2024-03-23T11:00:48;100709.19;;;11.99;48.00
74627;BME280;63132;52.268;5.192;2024-03-23T11:03:37;100708.81;;;12.01;49.18
74627;BME280;63132;52.268;5.192;2024-03-23T11:06:04;100703.03;;;11.50;50.87
74627;BME280;63132;52.268;5.192;2024-03-23T11:08:37;100720.13;;;11.45;51.68
74627;BME280;63132;52.268;5.192;2024-03-23T11:13:48;100698.16;;;11.24;50.99
74627;BME280;63132;52.268;5.192;2024-03-23T11:16:25;100704.19;;;11.53;50.09
74627;BME280;63132;52.268;5.192;2024-03-23T11:19:35;100701.41;;;11.53;49.10
74627;BME280;63132;52.268;5.192;2024-03-23T11:22:04;100709.50;;;11.74;47.51
74627;BME280;63132;52.268;5.192;2024-03-23T11:24:31;100694.19;;;11.97;47.41
74627;BME280;63132;52.268;5.192;2024-03-23T11:26:56;100703.00;;;12.18;46.56
74627;BME280;63132;52.268;5.192;2024-03-23T11:29:25;100698.59;;;11.90;46.98
74627;BME280;63132;52.268;5.192;2024-03-23T11:31:52;100697.81;;;12.20;46.46
74627;BME280;63132;52.268;5.192;2024-03-23T11:34:18;100698.00;;;12.37;45.75
74627;BME280;63132;52.268;5.192;2024-03-23T11:36:44;100694.72;;;12.42;45.48
74627;BME280;63132;52.268;5.192;2024-03-23T11:41:56;100708.47;;;11.95;50.26
74627;BME280;63132;52.268;5.192;2024-03-23T11:44:23;100692.69;;;11.17;55.09
74627;BME280;63132;52.268;5.192;2024-03-23T11:46:49;100697.91;;;11.49;56.45
74627;BME280;63132;52.268;5.192;2024-03-23T11:49:28;100705.03;;;11.84;53.79
74627;BME280;63132;52.268;5.192;2024-03-23T11:51:55;100684.50;;;11.78;50.15
74627;BME280;63132;52.268;5.192;2024-03-23T11:54:24;100688.03;;;12.39;49.67
74627;BME280;63132;52.268;5.192;2024-03-23T11:57:00;100683.47;;;12.26;50.15
74627;BME280;63132;52.268;5.192;2024-03-23T11:59:36;100685.84;;;11.97;50.19
74627;BME280;63132;52.268;5.192;2024-03-23T12:02:10;100687.56;;;12.17;48.30
74627;BME280;63132;52.268;5.192;2024-03-23T12:04:36;100684.41;;;12.15;48.01
74627;BME280;63132;52.268;5.192;2024-03-23T12:07:18;100681.56;;;11.92;48.65
74627;BME280;63132;52.268;5.192;2024-03-23T12:09:44;100681.25;;;12.13;48.04
74627;BME280;63132;52.268;5.192;2024-03-23T12:12:15;100669.69;;;12.45;47.05
74627;BME280;63132;52.268;5.192;2024-03-23T12:14:42;100680.13;;;12.38;46.17
74627;BME280;63132;52.268;5.192;2024-03-23T12:17:09;100673.69;;;12.44;46.67
74627;BME280;63132;52.268;5.192;2024-03-23T12:19:34;100673.38;;;12.62;46.22
74627;BME280;63132;52.268;5.192;2024-03-23T12:22:00;100670.59;;;12.86;45.63
74627;BME280;63132;52.268;5.192;2024-03-23T12:24:26;100664.88;;;12.96;46.32
74627;BME280;63132;52.268;5.192;2024-03-23T12:26:51;100672.00;;;12.97;46.06
74627;BME280;63132;52.268;5.192;2024-03-23T12:29:16;100669.59;;;13.43;44.88
74627;BME280;63132;52.268;5.192;2024-03-23T12:31:42;100659.31;;;13.40;44.43
74627;BME280;63132;52.268;5.192;2024-03-23T12:34:08;100652.13;;;13.42;43.59
74627;BME280;63132;52.268;5.192;2024-03-23T12:36:33;100672.31;;;13.26;43.73
74627;BME280;63132;52.268;5.192;2024-03-23T12:38:58;100655.69;;;13.23;43.63
74627;BME280;63132;52.268;5.192;2024-03-23T12:41:24;100661.03;;;12.67;45.73
74627;BME280;63132;52.268;5.192;2024-03-23T12:43:49;100678.53;;;12.10;47.48
74627;BME280;63132;52.268;5.192;2024-03-23T12:46:14;100669.22;;;11.62;49.07
74627;BME280;63132;52.268;5.192;2024-03-23T12:48:40;100695.56;;;11.47;49.92
74627;BME280;63132;52.268;5.192;2024-03-23T12:51:07;100677.53;;;11.62;49.55
74627;BME280;63132;52.268;5.192;2024-03-23T12:53:32;100670.59;;;11.81;49.62
74627;BME280;63132;52.268;5.192;2024-03-23T12:55:57;100676.53;;;12.10;49.08
74627;BME280;63132;52.268;5.192;2024-03-23T12:58:23;100677.00;;;12.05;50.15
74627;BME280;63132;52.268;5.192;2024-03-23T13:00:48;100665.00;;;11.85;50.10
74627;BME280;63132;52.268;5.192;2024-03-23T13:03:14;100663.38;;;11.87;48.67
74627;BME280;63132;52.268;5.192;2024-03-23T13:05:40;100658.72;;;12.35;49.13
74627;BME280;63132;52.268;5.192;2024-03-23T13:08:06;100664.59;;;12.67;47.82
74627;BME280;63132;52.268;5.192;2024-03-23T13:10:32;100664.75;;;12.57;47.71
74627;BME280;63132;52.268;5.192;2024-03-23T13:12:58;100669.03;;;12.61;47.74
74627;BME280;63132;52.268;5.192;2024-03-23T13:15:23;100660.94;;;12.47;47.33
74627;BME280;63132;52.268;5.192;2024-03-23T13:17:48;100659.84;;;12.41;47.85
74627;BME280;63132;52.268;5.192;2024-03-23T13:20:13;100659.47;;;11.85;47.87
74627;BME280;63132;52.268;5.192;2024-03-23T13:22:40;100650.75;;;11.83;48.04
74627;BME280;63132;52.268;5.192;2024-03-23T13:25:06;100656.06;;;12.28;47.35
74627;BME280;63132;52.268;5.192;2024-03-23T13:27:31;100670.25;;;11.42;48.09
74627;BME280;63132;52.268;5.192;2024-03-23T13:29:56;100659.47;;;11.13;49.76
74627;BME280;63132;52.268;5.192;2024-03-23T13:32:22;100664.00;;;10.96;50.86
74627;BME280;63132;52.268;5.192;2024-03-23T13:34:48;100646.84;;;10.64;52.28
74627;BME280;63132;52.268;5.192;2024-03-23T13:37:15;100636.06;;;10.76;52.69
74627;BME280;63132;52.268;5.192;2024-03-23T13:39:41;100644.59;;;10.96;52.19
74627;BME280;63132;52.268;5.192;2024-03-23T13:42:07;100628.72;;;11.00;51.48
74627;BME280;63132;52.268;5.192;2024-03-23T13:44:34;100628.97;;;11.13;50.92
74627;BME280;63132;52.268;5.192;2024-03-23T13:46:59;100632.25;;;11.38;50.15
74627;BME280;63132;52.268;5.192;2024-03-23T13:49:29;100616.56;;;11.89;48.24